Time;durP1;ratioP1;P1;durP2;ratioP2;P2;SDS_P1;SDS_P2;PMS_P1;PMS_P2;Temp;Humidity;BMP_temperature;BMP_pressure;BME280_temperature;BME280_humidity;BME280_pressure;Samples;Min_cycle;Max_cycle;Signal;HPM_P1;HPM_P2
2023/07/24 00:00:16;;;;;;;;;;;23.90;64.50;;;;;;5019933;28;19909;-37
2023/07/24 00:02:42;;;;;;;;;;;23.90;64.70;;;;;;5020128;28;20683;-37
2023/07/24 00:05:09;;;;;;;;;;;23.90;64.90;;;;;;5028809;28;19920;-37
2023/07/24 00:07:35;;;;;;;;;;;23.90;65.20;;;;;;5077908;28;19920;-37
2023/07/24 00:10:02;;;;;;;;;;;24.00;65.50;;;;;;5082376;28;19983;-42
2023/07/24 00:12:27;;;;;;;;;;;24.00;65.70;;;;;;5082106;28;19918;-37
2023/07/24 00:14:53;;;;;;;;;;;24.00;65.80;;;;;;5079570;28;19939;-37
2023/07/24 00:17:19;;;;;;;;;;;24.00;66.10;;;;;;5082011;28;20651;-37
2023/07/24 00:19:45;;;;;;;;;;;24.00;66.20;;;;;;5082277;28;19912;-37
2023/07/24 00:22:11;;;;;;;;;;;24.00;66.30;;;;;;5082051;28;19976;-38
2023/07/24 00:24:37;;;;;;;;;;;24.10;66.60;;;;;;5082053;28;19908;-37
2023/07/24 00:27:03;;;;;;;;;;;24.10;66.70;;;;;;5082157;28;20482;-36
2023/07/24 00:29:29;;;;;;;;;;;24.10;66.80;;;;;;5081612;28;19934;-37
2023/07/24 00:31:54;;;;;;;;;;;24.10;66.90;;;;;;5082392;28;19908;-37
2023/07/24 00:34:20;;;;;;;;;;;24.10;67.00;;;;;;5081541;28;19962;-37
2023/07/24 00:36:46;;;;;;;;;;;24.10;67.00;;;;;;5081991;28;19912;-37
2023/07/24 00:39:14;;;;;;;;;;;24.20;67.30;;;;;;5081754;28;19919;-37
2023/07/24 00:41:39;;;;;;;;;;;24.20;67.40;;;;;;5082132;28;19913;-37
2023/07/24 00:44:05;;;;;;;;;;;24.20;67.60;;;;;;5081654;28;19919;-37
2023/07/24 00:46:32;;;;;;;;;;;24.20;67.80;;;;;;5081427;28;19924;-38
2023/07/24 00:49:01;;;;;;;;;;;24.20;67.90;;;;;;5076797;28;19967;-37
2023/07/24 00:51:29;;;;;;;;;;;24.30;68.00;;;;;;5081415;28;19962;-38
2023/07/24 00:53:59;;;;;;;;;;;24.30;68.10;;;;;;5083375;28;19919;-37
2023/07/24 00:56:24;;;;;;;;;;;24.30;68.20;;;;;;5085569;28;19912;-37
2023/07/24 00:58:51;;;;;;;;;;;24.30;68.30;;;;;;5085649;28;19959;-37
2023/07/24 01:01:16;;;;;;;;;;;24.30;68.30;;;;;;5084595;28;19923;-37
2023/07/24 01:03:43;;;;;;;;;;;24.30;68.40;;;;;;5085650;28;19975;-37
2023/07/24 01:06:09;;;;;;;;;;;24.30;68.40;;;;;;5062114;28;19940;-36
2023/07/24 01:08:35;;;;;;;;;;;24.40;68.90;;;;;;5079419;28;19928;-37
2023/07/24 01:11:08;;;;;;;;;;;24.40;68.50;;;;;;5067474;28;19912;-37
2023/07/24 01:13:37;;;;;;;;;;;24.40;68.50;;;;;;5060396;28;19912;-37
2023/07/24 01:16:09;;;;;;;;;;;24.40;68.50;;;;;;5067264;28;19912;-37
2023/07/24 01:18:36;;;;;;;;;;;24.40;68.60;;;;;;5085177;28;19918;-37
2023/07/24 01:21:02;;;;;;;;;;;24.40;68.70;;;;;;5085438;28;19912;-37
2023/07/24 01:23:48;;;;;;;;;;;24.50;69.00;;;;;;5085024;28;19931;-37
2023/07/24 01:26:14;;;;;;;;;;;24.50;69.00;;;;;;5084843;28;19912;-37
2023/07/24 01:28:40;;;;;;;;;;;24.50;69.10;;;;;;5067313;28;20008;-37
2023/07/24 01:31:05;;;;;;;;;;;24.50;69.20;;;;;;5067136;28;19909;-36
2023/07/24 01:33:33;;;;;;;;;;;24.50;69.30;;;;;;5082926;28;19919;-36
2023/07/24 01:35:59;;;;;;;;;;;24.50;69.30;;;;;;5067120;28;19913;-37
2023/07/24 01:38:25;;;;;;;;;;;24.50;69.40;;;;;;5064936;28;20285;-37
2023/07/24 01:40:54;;;;;;;;;;;24.50;69.40;;;;;;5085339;28;19916;-37
2023/07/24 01:43:20;;;;;;;;;;;24.50;69.30;;;;;;5049049;28;20379;-37
2023/07/24 01:45:45;;;;;;;;;;;24.50;69.20;;;;;;5084707;28;19936;-37
2023/07/24 01:48:11;;;;;;;;;;;24.50;69.20;;;;;;5083311;28;19927;-37
2023/07/24 01:50:37;;;;;;;;;;;24.60;69.20;;;;;;5084748;28;20401;-37
2023/07/24 01:53:03;;;;;;;;;;;24.60;69.20;;;;;;5084642;28;19915;-37
2023/07/24 01:55:29;;;;;;;;;;;24.60;69.20;;;;;;5084389;28;19912;-36
2023/07/24 01:57:55;;;;;;;;;;;24.60;69.20;;;;;;5084559;28;19918;-37
2023/07/24 02:00:21;;;;;;;;;;;24.60;69.30;;;;;;5084224;28;19923;-37
2023/07/24 02:02:47;;;;;;;;;;;24.60;69.50;;;;;;5066289;28;19919;-37
2023/07/24 02:05:13;;;;;;;;;;;24.60;69.60;;;;;;5082823;28;19915;-37
2023/07/24 02:07:42;;;;;;;;;;;24.60;69.70;;;;;;5083655;28;19924;-37
2023/07/24 02:10:08;;;;;;;;;;;24.60;69.80;;;;;;5083740;28;19920;-37
2023/07/24 02:12:34;;;;;;;;;;;24.60;69.90;;;;;;5083822;28;19915;-37
2023/07/24 02:15:00;;;;;;;;;;;24.60;69.90;;;;;;5084065;28;19912;-37
2023/07/24 02:17:26;;;;;;;;;;;24.60;70.00;;;;;;5080716;28;19912;-37
2023/07/24 02:19:52;;;;;;;;;;;24.60;70.00;;;;;;5084279;28;19978;-37
2023/07/24 02:22:18;;;;;;;;;;;24.60;70.00;;;;;;5083605;28;19912;-37
2023/07/24 02:24:45;;;;;;;;;;;24.60;70.00;;;;;;5084082;28;19919;-37
2023/07/24 02:27:24;;;;;;;;;;;24.60;69.90;;;;;;5083097;28;19932;-37
2023/07/24 02:29:50;;;;;;;;;;;24.60;70.00;;;;;;5083567;28;19912;-37
2023/07/24 02:32:16;;;;;;;;;;;24.60;70.00;;;;;;5083660;28;19915;-37
2023/07/24 02:34:42;;;;;;;;;;;24.70;70.00;;;;;;5083510;28;19912;-37
2023/07/24 02:37:08;;;;;;;;;;;24.70;70.00;;;;;;5064926;28;19967;-37
2023/07/24 02:39:34;;;;;;;;;;;24.70;69.90;;;;;;5083759;28;19919;-37
2023/07/24 02:42:00;;;;;;;;;;;24.70;70.00;;;;;;5083804;28;19916;-37
2023/07/24 02:44:26;;;;;;;;;;;24.70;70.20;;;;;;5083457;28;19955;-37
2023/07/24 02:46:52;;;;;;;;;;;24.70;70.20;;;;;;5083330;28;19992;-38
2023/07/24 02:49:18;;;;;;;;;;;24.70;70.30;;;;;;5083058;28;19992;-37
2023/07/24 02:51:44;;;;;;;;;;;24.70;70.40;;;;;;5079316;28;19912;-37
2023/07/24 02:54:09;;;;;;;;;;;24.70;70.60;;;;;;5080733;28;20433;-37
2023/07/24 02:56:35;;;;;;;;;;;24.70;70.70;;;;;;5081260;28;19959;-37
2023/07/24 02:59:01;;;;;;;;;;;24.70;70.70;;;;;;5082252;28;19944;-37
2023/07/24 03:01:27;;;;;;;;;;;24.70;70.70;;;;;;5082645;28;19912;-37
2023/07/24 03:03:53;;;;;;;;;;;24.70;70.80;;;;;;5083358;28;19912;-37
2023/07/24 03:06:19;;;;;;;;;;;24.70;70.70;;;;;;5080757;28;19916;-37
2023/07/24 03:08:45;;;;;;;;;;;24.70;70.70;;;;;;5082418;28;19927;-37
2023/07/24 03:11:10;;;;;;;;;;;24.70;70.50;;;;;;5082829;28;20004;-37
2023/07/24 03:13:36;;;;;;;;;;;24.70;70.30;;;;;;5075685;28;19998;-37
2023/07/24 03:16:02;;;;;;;;;;;24.70;70.00;;;;;;5082725;28;20012;-37
2023/07/24 03:18:28;;;;;;;;;;;24.70;69.90;;;;;;5082235;28;20372;-37
2023/07/24 03:20:54;;;;;;;;;;;24.70;69.80;;;;;;5082859;28;19972;-37
2023/07/24 03:23:20;;;;;;;;;;;24.70;69.60;;;;;;5082504;28;19916;-37
2023/07/24 03:25:46;;;;;;;;;;;24.70;70.00;;;;;;5082730;28;20058;-36
2023/07/24 03:28:12;;;;;;;;;;;24.70;70.60;;;;;;5082149;28;19967;-37
2023/07/24 03:30:38;;;;;;;;;;;24.70;70.90;;;;;;5083076;28;19947;-37
2023/07/24 03:33:03;;;;;;;;;;;24.70;71.00;;;;;;5081958;28;20434;-37
2023/07/24 03:35:29;;;;;;;;;;;24.70;71.00;;;;;;5074971;28;19912;-37
2023/07/24 03:37:55;;;;;;;;;;;24.70;71.10;;;;;;5077533;28;19929;-37
2023/07/24 03:40:21;;;;;;;;;;;24.70;71.10;;;;;;5082292;28;19923;-37
2023/07/24 03:42:47;;;;;;;;;;;24.70;71.10;;;;;;5082576;28;19972;-37
2023/07/24 03:45:13;;;;;;;;;;;24.70;71.20;;;;;;5082066;28;20406;-37
2023/07/24 03:47:39;;;;;;;;;;;24.70;71.20;;;;;;5082068;28;19916;-37
2023/07/24 03:50:05;;;;;;;;;;;24.70;71.10;;;;;;5074187;28;19919;-37
2023/07/24 03:52:30;;;;;;;;;;;24.70;70.70;;;;;;5082643;28;20556;-37
2023/07/24 03:54:56;;;;;;;;;;;24.70;70.60;;;;;;5082657;28;19913;-37
2023/07/24 03:57:22;;;;;;;;;;;24.70;70.30;;;;;;5082058;28;20367;-37
2023/07/24 03:59:48;;;;;;;;;;;24.70;70.30;;;;;;5082472;28;19935;-37
2023/07/24 04:02:14;;;;;;;;;;;24.70;70.20;;;;;;5074301;28;19912;-37
2023/07/24 04:04:40;;;;;;;;;;;24.70;70.10;;;;;;5082437;28;19942;-37
2023/07/24 04:07:06;;;;;;;;;;;24.70;70.20;;;;;;5079228;28;19908;-37
2023/07/24 04:09:32;;;;;;;;;;;24.70;70.60;;;;;;5082196;28;19924;-37
2023/07/24 04:11:57;;;;;;;;;;;24.70;70.90;;;;;;5063875;28;19912;-37
2023/07/24 04:14:23;;;;;;;;;;;24.70;71.30;;;;;;5081269;28;19960;-37
2023/07/24 04:16:49;;;;;;;;;;;24.70;71.30;;;;;;5081903;28;19919;-37
2023/07/24 04:19:15;;;;;;;;;;;24.70;71.40;;;;;;5082053;28;19912;-37
2023/07/24 04:21:41;;;;;;;;;;;24.70;71.40;;;;;;5082246;28;19923;-36
2023/07/24 04:24:07;;;;;;;;;;;24.70;71.40;;;;;;5081777;28;19919;-37
2023/07/24 04:26:33;;;;;;;;;;;24.60;71.40;;;;;;5082336;28;19912;-37
2023/07/24 04:28:59;;;;;;;;;;;24.60;71.20;;;;;;5083569;28;19990;-37
2023/07/24 04:31:24;;;;;;;;;;;24.60;71.00;;;;;;5086167;28;19955;-37
2023/07/24 04:33:50;;;;;;;;;;;24.60;70.70;;;;;;5085981;28;19962;-37
2023/07/24 04:36:16;;;;;;;;;;;24.60;70.40;;;;;;5085973;28;19947;-37
2023/07/24 04:38:42;;;;;;;;;;;24.60;70.30;;;;;;5085732;28;19912;-37
2023/07/24 04:41:08;;;;;;;;;;;24.60;70.20;;;;;;5085815;28;19912;-37
2023/07/24 04:43:34;;;;;;;;;;;24.60;70.20;;;;;;5085987;28;20630;-37
2023/07/24 04:46:00;;;;;;;;;;;24.60;70.20;;;;;;5086209;28;20006;-37
2023/07/24 04:48:25;;;;;;;;;;;24.60;70.10;;;;;;5084289;28;19916;-37
2023/07/24 04:50:57;;;;;;;;;;;24.60;70.10;;;;;;5086077;28;19912;-37
2023/07/24 04:53:23;;;;;;;;;;;24.60;70.50;;;;;;5085282;28;19941;-37
2023/07/24 04:55:48;;;;;;;;;;;24.60;70.60;;;;;;5084258;28;19912;-37
2023/07/24 04:58:14;;;;;;;;;;;24.60;70.80;;;;;;5082750;28;19951;-38
2023/07/24 05:00:40;;;;;;;;;;;24.60;70.80;;;;;;5078835;28;19916;-37
2023/07/24 05:03:11;;;;;;;;;;;24.60;70.90;;;;;;5085251;28;20414;-37
2023/07/24 05:05:37;;;;;;;;;;;24.60;70.90;;;;;;5078352;28;19916;-37
2023/07/24 05:08:03;;;;;;;;;;;24.60;71.00;;;;;;5080973;28;19984;-37
2023/07/24 05:10:29;;;;;;;;;;;24.60;71.10;;;;;;5084400;28;20641;-38
2023/07/24 05:12:56;;;;;;;;;;;24.60;71.00;;;;;;5085272;28;19908;-37
2023/07/24 05:15:22;;;;;;;;;;;24.60;70.90;;;;;;5085117;28;19918;-37
2023/07/24 05:17:48;;;;;;;;;;;24.60;70.70;;;;;;5085393;28;19952;-36
2023/07/24 05:20:14;;;;;;;;;;;24.60;70.60;;;;;;5085375;28;19984;-36
2023/07/24 05:22:40;;;;;;;;;;;24.60;70.60;;;;;;5085035;28;19959;-38
2023/07/24 05:25:06;;;;;;;;;;;24.60;70.60;;;;;;5085096;28;19919;-37
2023/07/24 05:27:31;;;;;;;;;;;24.60;70.50;;;;;;5082978;28;19960;-38
2023/07/24 05:29:57;;;;;;;;;;;24.60;70.60;;;;;;5083407;28;19935;-37
2023/07/24 05:32:23;;;;;;;;;;;24.60;70.70;;;;;;5084884;28;19922;-37
2023/07/24 05:34:49;;;;;;;;;;;24.60;70.80;;;;;;5085070;28;19935;-37
2023/07/24 05:37:15;;;;;;;;;;;24.60;70.90;;;;;;5083805;28;19912;-37
2023/07/24 05:39:41;;;;;;;;;;;24.50;71.00;;;;;;5084633;28;19919;-37
2023/07/24 05:42:07;;;;;;;;;;;24.50;71.10;;;;;;5084741;28;19919;-37
2023/07/24 05:44:33;;;;;;;;;;;24.50;71.00;;;;;;5084464;28;19921;-37
2023/07/24 05:46:58;;;;;;;;;;;24.50;71.10;;;;;;5085030;28;19916;-37
2023/07/24 05:49:26;;;;;;;;;;;24.50;71.10;;;;;;5084306;28;19924;-37
2023/07/24 05:51:53;;;;;;;;;;;24.50;71.20;;;;;;5084605;28;19912;-37
2023/07/24 05:54:19;;;;;;;;;;;24.50;71.20;;;;;;5084288;28;19912;-37
2023/07/24 05:56:45;;;;;;;;;;;24.50;71.20;;;;;;5083197;28;19912;-37
2023/07/24 05:59:11;;;;;;;;;;;24.50;71.10;;;;;;5084088;28;19967;-37
2023/07/24 06:01:37;;;;;;;;;;;24.50;71.10;;;;;;5084745;28;19912;-37
2023/07/24 06:04:03;;;;;;;;;;;24.50;71.00;;;;;;5084365;28;19980;-37
2023/07/24 06:06:29;;;;;;;;;;;24.50;70.90;;;;;;5081213;28;19912;-37
2023/07/24 06:08:55;;;;;;;;;;;24.50;71.10;;;;;;5083694;28;19920;-37
2023/07/24 06:11:20;;;;;;;;;;;24.50;71.20;;;;;;5083679;28;19908;-37
2023/07/24 06:13:46;;;;;;;;;;;24.50;71.30;;;;;;5084315;28;19971;-38
2023/07/24 06:16:13;;;;;;;;;;;24.50;71.30;;;;;;5083797;28;20375;-37
2023/07/24 06:18:39;;;;;;;;;;;24.50;71.40;;;;;;5083398;28;19912;-37
2023/07/24 06:21:05;;;;;;;;;;;24.50;71.40;;;;;;5083790;28;19913;-37
2023/07/24 06:23:31;;;;;;;;;;;24.40;71.50;;;;;;5083609;28;19913;-38
2023/07/24 06:25:57;;;;;;;;;;;24.40;71.50;;;;;;5083697;28;19924;-37
2023/07/24 06:28:23;;;;;;;;;;;24.40;71.50;;;;;;5083458;28;20438;-37
2023/07/24 06:30:51;;;;;;;;;;;24.40;71.40;;;;;;5083236;28;19908;-37
2023/07/24 06:33:17;;;;;;;;;;;24.40;71.20;;;;;;5082589;28;20739;-37
2023/07/24 06:35:43;;;;;;;;;;;24.40;71.20;;;;;;5081343;28;19912;-37
2023/07/24 06:38:09;;;;;;;;;;;24.40;71.10;;;;;;5054074;28;20391;-37
2023/07/24 06:40:35;;;;;;;;;;;24.40;71.10;;;;;;5083256;28;19966;-37
2023/07/24 06:43:01;;;;;;;;;;;24.40;71.10;;;;;;5083339;28;19909;-37
2023/07/24 06:45:26;;;;;;;;;;;24.40;70.90;;;;;;5082419;28;19913;-37
2023/07/24 06:47:52;;;;;;;;;;;24.40;71.00;;;;;;5083765;28;19917;-37
2023/07/24 06:50:18;;;;;;;;;;;24.40;71.10;;;;;;5083409;28;19966;-37
2023/07/24 06:52:44;;;;;;;;;;;24.40;71.00;;;;;;5079861;28;19912;-37
2023/07/24 06:55:10;;;;;;;;;;;24.40;70.90;;;;;;5083219;28;20388;-37
2023/07/24 06:57:36;;;;;;;;;;;24.40;71.00;;;;;;5080042;28;19912;-37
2023/07/24 07:00:02;;;;;;;;;;;24.40;71.00;;;;;;5083405;28;19959;-37
2023/07/24 07:02:28;;;;;;;;;;;24.40;71.00;;;;;;5082888;28;19913;-37
2023/07/24 07:04:54;;;;;;;;;;;24.40;71.00;;;;;;5083030;28;20014;-37
2023/07/24 07:07:20;;;;;;;;;;;24.40;71.00;;;;;;5082125;28;19931;-37
2023/07/24 07:09:46;;;;;;;;;;;24.30;71.00;;;;;;5082805;28;19916;-37
2023/07/24 07:12:11;;;;;;;;;;;24.30;71.10;;;;;;5082832;28;19920;-37
2023/07/24 07:14:37;;;;;;;;;;;24.30;71.00;;;;;;5082811;28;19943;-37
2023/07/24 07:17:03;;;;;;;;;;;24.30;71.10;;;;;;5082504;28;19967;-37
2023/07/24 07:19:29;;;;;;;;;;;24.30;71.10;;;;;;5082600;28;19918;-37
2023/07/24 07:21:55;;;;;;;;;;;24.30;71.20;;;;;;5081892;28;19999;-37
2023/07/24 07:24:21;;;;;;;;;;;24.30;71.10;;;;;;5082441;28;19912;-37
2023/07/24 07:26:47;;;;;;;;;;;24.30;71.10;;;;;;5082851;28;19912;-37
2023/07/24 07:29:13;;;;;;;;;;;24.30;71.10;;;;;;5082378;28;19921;-37
2023/07/24 07:31:39;;;;;;;;;;;24.30;71.10;;;;;;5083054;28;19912;-37
2023/07/24 07:34:04;;;;;;;;;;;24.30;71.90;;;;;;5082287;28;19935;-37
2023/07/24 07:36:30;;;;;;;;;;;24.30;71.30;;;;;;5082156;28;19912;-37
2023/07/24 07:38:56;;;;;;;;;;;24.30;71.50;;;;;;5082762;28;20341;-37
2023/07/24 07:41:22;;;;;;;;;;;24.30;71.30;;;;;;5082155;28;19963;-37
2023/07/24 07:43:48;;;;;;;;;;;24.30;71.50;;;;;;5082195;28;19912;-37
2023/07/24 07:46:14;;;;;;;;;;;24.30;71.40;;;;;;5082349;28;19919;-37
2023/07/24 07:48:40;;;;;;;;;;;24.30;71.50;;;;;;5082683;28;19920;-37
2023/07/24 07:51:06;;;;;;;;;;;24.30;71.40;;;;;;5082610;28;19912;-37
2023/07/24 07:53:32;;;;;;;;;;;24.20;71.40;;;;;;5082162;28;20019;-37
2023/07/24 07:55:59;;;;;;;;;;;24.20;71.30;;;;;;5082189;28;19913;-37
2023/07/24 07:58:25;;;;;;;;;;;24.20;71.30;;;;;;5081245;28;19916;-37
2023/07/24 08:00:51;;;;;;;;;;;24.20;71.30;;;;;;5078803;28;19979;-37
2023/07/24 08:03:17;;;;;;;;;;;24.20;71.40;;;;;;5081173;28;19913;-38
2023/07/24 08:05:43;;;;;;;;;;;24.20;71.40;;;;;;5081933;28;19912;-37
2023/07/24 08:08:09;;;;;;;;;;;24.20;71.40;;;;;;5081853;28;19927;-37
2023/07/24 08:10:37;;;;;;;;;;;24.20;71.40;;;;;;5082335;28;20432;-37
2023/07/24 08:13:03;;;;;;;;;;;24.20;71.40;;;;;;5082482;28;19915;-37
2023/07/24 08:15:29;;;;;;;;;;;24.20;71.40;;;;;;5082010;28;19912;-37
2023/07/24 08:17:55;;;;;;;;;;;24.20;71.40;;;;;;5081696;28;19919;-37
2023/07/24 08:20:21;;;;;;;;;;;24.10;71.50;;;;;;5082169;28;19912;-37
2023/07/24 08:22:47;;;;;;;;;;;24.10;71.50;;;;;;5081948;28;19924;-37
2023/07/24 08:25:13;;;;;;;;;;;24.10;71.70;;;;;;5081757;28;19909;-36
2023/07/24 08:27:38;;;;;;;;;;;24.10;71.70;;;;;;5081826;28;19917;-37
2023/07/24 08:30:05;;;;;;;;;;;24.10;71.60;;;;;;5082090;28;19909;-37
2023/07/24 08:32:30;;;;;;;;;;;24.10;71.70;;;;;;5082259;28;19935;-37
2023/07/24 08:34:56;;;;;;;;;;;24.10;71.70;;;;;;5081953;28;19912;-37
2023/07/24 08:37:22;;;;;;;;;;;24.10;72.00;;;;;;5081663;28;19951;-37
2023/07/24 08:39:48;;;;;;;;;;;24.10;71.90;;;;;;5076810;28;19918;-37
2023/07/24 08:42:14;;;;;;;;;;;24.10;71.80;;;;;;5081947;28;20018;-37
2023/07/24 08:44:40;;;;;;;;;;;24.00;71.70;;;;;;5081828;28;19923;-36
2023/07/24 08:47:06;;;;;;;;;;;24.10;71.70;;;;;;5077054;28;19961;-37
2023/07/24 08:49:32;;;;;;;;;;;24.00;71.60;;;;;;5080925;28;20007;-37
2023/07/24 08:51:58;;;;;;;;;;;24.00;71.70;;;;;;5080597;28;19923;-37
2023/07/24 08:54:26;;;;;;;;;;;24.00;71.80;;;;;;5081458;28;19953;-37
2023/07/24 08:56:52;;;;;;;;;;;24.00;71.70;;;;;;5064261;28;20011;-37
2023/07/24 08:59:18;;;;;;;;;;;24.00;71.70;;;;;;5081380;28;19912;-37
2023/07/24 09:01:44;;;;;;;;;;;24.00;71.80;;;;;;5080022;28;19988;-37
2023/07/24 09:04:10;;;;;;;;;;;24.00;71.80;;;;;;5081844;28;19908;-37
2023/07/24 09:06:35;;;;;;;;;;;24.00;71.90;;;;;;5080592;28;19908;-37
2023/07/24 09:09:01;;;;;;;;;;;24.00;71.90;;;;;;5081588;28;19920;-37
2023/07/24 09:11:27;;;;;;;;;;;24.00;71.90;;;;;;5080192;28;19934;-37
2023/07/24 09:13:53;;;;;;;;;;;24.00;72.00;;;;;;5081902;28;19913;-37
2023/07/24 09:16:23;;;;;;;;;;;24.00;72.00;;;;;;5084437;28;19939;-37
2023/07/24 09:18:51;;;;;;;;;;;24.00;72.00;;;;;;5084347;28;19916;-37
2023/07/24 09:21:26;;;;;;;;;;;23.90;71.90;;;;;;5084193;28;19975;-37
2023/07/24 09:23:52;;;;;;;;;;;24.00;72.00;;;;;;5085174;28;19922;-37
2023/07/24 09:26:18;;;;;;;;;;;23.90;71.90;;;;;;5082922;28;20007;-37
2023/07/24 09:28:50;;;;;;;;;;;23.90;71.80;;;;;;5078966;28;19920;-37
2023/07/24 09:31:16;;;;;;;;;;;23.90;71.90;;;;;;5066713;28;20384;-37
2023/07/24 09:33:43;;;;;;;;;;;23.90;71.80;;;;;;5084388;28;19916;-36
2023/07/24 09:36:10;;;;;;;;;;;23.90;71.90;;;;;;5084322;28;19912;-37
2023/07/24 09:38:36;;;;;;;;;;;23.90;71.90;;;;;;5082273;28;19912;-37
2023/07/24 09:41:03;;;;;;;;;;;23.90;71.90;;;;;;5084593;28;19923;-37
2023/07/24 09:43:29;;;;;;;;;;;23.90;71.80;;;;;;5084412;28;19970;-37
2023/07/24 09:45:55;;;;;;;;;;;23.90;72.00;;;;;;5084786;28;20316;-37
2023/07/24 09:48:22;;;;;;;;;;;23.90;71.90;;;;;;5084417;28;19949;-37
2023/07/24 09:50:49;;;;;;;;;;;23.90;72.10;;;;;;5085177;28;20021;-37
2023/07/24 09:53:36;;;;;;;;;;;23.80;71.90;;;;;;5084141;28;19913;-37
2023/07/24 09:56:04;;;;;;;;;;;23.80;72.00;;;;;;5084310;28;19916;-37
2023/07/24 09:58:30;;;;;;;;;;;23.80;72.10;;;;;;5084617;28;19912;-37
2023/07/24 10:00:56;;;;;;;;;;;23.80;72.10;;;;;;5066584;28;20003;-36
2023/07/24 10:03:22;;;;;;;;;;;23.80;72.10;;;;;;5081238;28;20365;-37
2023/07/24 10:05:48;;;;;;;;;;;23.80;72.10;;;;;;5084070;28;19934;-37
2023/07/24 10:08:14;;;;;;;;;;;23.80;72.10;;;;;;5083936;28;19920;-37
2023/07/24 10:10:40;;;;;;;;;;;23.80;72.00;;;;;;5084300;28;19914;-37
2023/07/24 10:13:06;;;;;;;;;;;23.80;71.90;;;;;;5083779;28;19983;-37
2023/07/24 10:15:32;;;;;;;;;;;23.80;72.10;;;;;;5083291;28;19912;-37
2023/07/24 10:18:05;;;;;;;;;;;23.80;72.00;;;;;;5084162;28;19905;-37
2023/07/24 10:20:48;;;;;;;;;;;23.80;72.00;;;;;;5083576;28;19980;-36
2023/07/24 10:23:16;;;;;;;;;;;23.80;72.10;;;;;;5083757;28;19908;-36
2023/07/24 10:25:44;;;;;;;;;;;23.80;72.20;;;;;;5083319;28;20666;-36
2023/07/24 10:28:11;;;;;;;;;;;23.70;72.10;;;;;;5083107;28;19916;-36
2023/07/24 10:30:37;;;;;;;;;;;23.70;72.10;;;;;;5076755;28;19915;-37
2023/07/24 10:33:10;;;;;;;;;;;23.70;72.10;;;;;;5083735;28;19966;-36
2023/07/24 10:35:43;;;;;;;;;;;23.70;72.00;;;;;;5083400;28;20048;-38
2023/07/24 10:38:09;;;;;;;;;;;23.70;72.20;;;;;;5083444;28;19912;-37
2023/07/24 10:40:35;;;;;;;;;;;23.70;72.20;;;;;;5083629;28;19913;-37
2023/07/24 10:43:01;;;;;;;;;;;23.70;72.20;;;;;;5076529;28;19908;-37
2023/07/24 10:45:27;;;;;;;;;;;23.70;72.30;;;;;;5083593;28;19920;-37
2023/07/24 10:47:53;;;;;;;;;;;23.70;72.30;;;;;;5065082;28;19928;-38
2023/07/24 10:50:19;;;;;;;;;;;23.70;72.30;;;;;;5083212;28;19923;-37
2023/07/24 10:52:45;;;;;;;;;;;23.70;72.30;;;;;;5083287;28;20347;-37
2023/07/24 10:55:11;;;;;;;;;;;23.70;72.20;;;;;;5063653;28;19912;-37
2023/07/24 10:57:37;;;;;;;;;;;23.60;72.20;;;;;;5082949;28;20005;-37
2023/07/24 11:00:03;;;;;;;;;;;23.60;72.20;;;;;;5083225;28;19919;-37
2023/07/24 11:02:29;;;;;;;;;;;23.60;72.30;;;;;;5083419;28;19919;-37
2023/07/24 11:04:58;;;;;;;;;;;23.60;72.30;;;;;;5065398;28;19939;-37
2023/07/24 11:07:24;;;;;;;;;;;23.60;72.20;;;;;;5077393;28;19975;-37
2023/07/24 11:09:51;;;;;;;;;;;23.60;72.20;;;;;;5076534;28;19951;-37
2023/07/24 11:12:16;;;;;;;;;;;23.60;72.30;;;;;;5082357;28;19919;-37
2023/07/24 11:14:54;;;;;;;;;;;23.60;72.30;;;;;;5083632;28;19916;-37
2023/07/24 11:17:19;;;;;;;;;;;23.60;72.30;;;;;;5081844;28;20421;-36
2023/07/24 11:19:45;;;;;;;;;;;23.60;72.30;;;;;;5083249;28;19940;-37
2023/07/24 11:22:11;;;;;;;;;;;23.60;72.40;;;;;;5082761;28;19913;-37
2023/07/24 11:24:44;;;;;;;;;;;23.60;72.40;;;;;;5075712;28;19974;-37
2023/07/24 11:27:12;;;;;;;;;;;23.60;72.40;;;;;;5082300;28;19986;-37
2023/07/24 11:29:38;;;;;;;;;;;23.60;72.50;;;;;;5075937;28;20442;-37
2023/07/24 11:32:24;;;;;;;;;;;23.50;72.50;;;;;;5082518;28;19912;-37
2023/07/24 11:34:50;;;;;;;;;;;23.50;72.50;;;;;;5000490;28;19959;-37
2023/07/24 11:37:16;;;;;;;;;;;23.50;72.50;;;;;;4997196;28;20525;-37
2023/07/24 11:39:42;;;;;;;;;;;23.50;73.30;;;;;;5000679;28;19914;-37
2023/07/24 11:42:08;;;;;;;;;;;23.50;72.50;;;;;;5000360;28;19913;-37
2023/07/24 11:44:34;;;;;;;;;;;23.50;72.50;;;;;;5000861;28;19985;-38
2023/07/24 11:47:00;;;;;;;;;;;23.50;72.50;;;;;;5000333;28;20000;-36
2023/07/24 11:49:26;;;;;;;;;;;23.50;72.50;;;;;;4992426;28;19921;-36
2023/07/24 11:51:52;;;;;;;;;;;23.50;72.50;;;;;;5000475;28;19914;-36
2023/07/24 11:54:18;;;;;;;;;;;23.50;72.60;;;;;;5000207;28;19921;-37
2023/07/24 11:56:44;;;;;;;;;;;23.50;72.50;;;;;;5000182;28;19980;-37
2023/07/24 11:59:10;;;;;;;;;;;23.50;72.60;;;;;;5000136;28;19921;-36
2023/07/24 12:01:37;;;;;;;;;;;23.50;72.60;;;;;;4999188;28;19914;-36
2023/07/24 12:04:03;;;;;;;;;;;23.50;72.70;;;;;;5000621;28;19913;-37
2023/07/24 12:06:32;;;;;;;;;;;23.50;72.70;;;;;;4994598;28;19973;-36
2023/07/24 12:09:07;;;;;;;;;;;23.50;72.70;;;;;;4999848;28;19922;-37
2023/07/24 12:11:33;;;;;;;;;;;23.40;72.70;;;;;;5025303;28;20661;-37
2023/07/24 12:13:59;;;;;;;;;;;23.40;72.80;;;;;;5082362;28;19954;-38
2023/07/24 12:16:25;;;;;;;;;;;23.40;72.80;;;;;;5081744;28;19917;-37
2023/07/24 12:18:50;;;;;;;;;;;23.40;72.70;;;;;;5081627;28;19915;-37
2023/07/24 12:21:16;;;;;;;;;;;23.40;72.80;;;;;;5082059;28;20017;-37
2023/07/24 12:23:44;;;;;;;;;;;23.40;72.70;;;;;;5081371;28;19952;-38
2023/07/24 12:26:10;;;;;;;;;;;23.40;72.80;;;;;;5079291;28;19915;-37
2023/07/24 12:28:35;;;;;;;;;;;23.40;72.80;;;;;;5081612;28;19923;-38
2023/07/24 12:31:02;;;;;;;;;;;23.40;72.80;;;;;;5082277;28;19912;-38
2023/07/24 12:33:28;;;;;;;;;;;23.40;72.80;;;;;;5081866;28;19912;-37
2023/07/24 12:35:54;;;;;;;;;;;23.40;72.80;;;;;;5082002;28;20048;-38
2023/07/24 12:38:20;;;;;;;;;;;23.40;72.80;;;;;;5081500;28;19916;-37
2023/07/24 12:40:46;;;;;;;;;;;23.40;72.90;;;;;;5081734;28;19915;-38
2023/07/24 12:43:11;;;;;;;;;;;23.40;72.90;;;;;;5081848;28;19916;-38
2023/07/24 12:45:37;;;;;;;;;;;23.40;73.00;;;;;;5075026;28;20649;-38
2023/07/24 12:48:03;;;;;;;;;;;23.40;73.00;;;;;;5074708;28;19921;-38
2023/07/24 12:50:30;;;;;;;;;;;23.40;73.20;;;;;;5083704;28;19912;-37
2023/07/24 12:52:56;;;;;;;;;;;23.40;73.30;;;;;;5082790;28;19912;-38
2023/07/24 12:55:22;;;;;;;;;;;23.30;73.30;;;;;;5085839;28;19935;-38
2023/07/24 12:57:48;;;;;;;;;;;23.30;73.20;;;;;;5085639;28;20208;-38
2023/07/24 13:00:14;;;;;;;;;;;23.40;73.10;;;;;;5083575;28;19975;-38
2023/07/24 13:02:39;;;;;;;;;;;23.40;73.30;;;;;;5084642;28;19957;-37
2023/07/24 13:05:05;;;;;;;;;;;23.40;73.30;;;;;;5085358;28;19958;-38
2023/07/24 13:07:31;;;;;;;;;;;23.40;73.40;;;;;;5084579;28;19919;-38
2023/07/24 13:09:57;;;;;;;;;;;23.40;73.40;;;;;;5083449;28;20662;-38
2023/07/24 13:12:23;;;;;;;;;;;23.40;73.40;;;;;;5084703;28;19916;-37
2023/07/24 13:14:49;;;;;;;;;;;23.40;73.50;;;;;;5085333;28;19966;-38
2023/07/24 13:17:16;;;;;;;;;;;23.40;73.60;;;;;;5085056;28;19912;-38
2023/07/24 13:19:41;;;;;;;;;;;23.40;73.60;;;;;;5084923;28;20628;-38
2023/07/24 13:22:07;;;;;;;;;;;23.40;73.60;;;;;;5085172;28;19968;-38
2023/07/24 13:24:33;;;;;;;;;;;23.40;73.70;;;;;;5085105;28;19938;-38
2023/07/24 13:26:59;;;;;;;;;;;23.40;73.80;;;;;;5084287;28;19913;-38
2023/07/24 13:29:25;;;;;;;;;;;23.40;73.80;;;;;;5083947;28;19925;-38
2023/07/24 13:31:53;;;;;;;;;;;23.40;74.00;;;;;;5084865;28;19912;-38
2023/07/24 13:34:19;;;;;;;;;;;23.40;74.10;;;;;;5084598;28;20694;-38
2023/07/24 13:36:46;;;;;;;;;;;23.40;74.20;;;;;;5084982;28;19913;-38
2023/07/24 13:39:12;;;;;;;;;;;23.50;74.30;;;;;;5082286;28;19962;-38
2023/07/24 13:41:38;;;;;;;;;;;23.50;74.20;;;;;;5084607;28;19912;-38
2023/07/24 13:44:04;;;;;;;;;;;23.50;74.20;;;;;;5084993;28;19919;-38
2023/07/24 13:46:30;;;;;;;;;;;23.50;74.20;;;;;;5084711;28;19962;-37
2023/07/24 13:48:56;;;;;;;;;;;23.50;74.10;;;;;;5084685;28;19968;-37
2023/07/24 13:51:22;;;;;;;;;;;23.50;73.90;;;;;;5084661;28;19923;-37
2023/07/24 13:53:49;;;;;;;;;;;23.50;73.90;;;;;;5084340;28;19947;-38
2023/07/24 13:56:15;;;;;;;;;;;23.50;73.90;;;;;;5084704;28;19915;-38
2023/07/24 13:58:40;;;;;;;;;;;23.50;74.00;;;;;;5084815;28;19912;-37
2023/07/24 14:01:07;;;;;;;;;;;23.50;74.20;;;;;;5078039;28;19965;-37
2023/07/24 14:03:33;;;;;;;;;;;23.60;74.60;;;;;;5084082;28;19942;-37
2023/07/24 14:05:59;;;;;;;;;;;23.60;74.60;;;;;;5066558;28;19912;-37
2023/07/24 14:08:25;;;;;;;;;;;23.60;74.70;;;;;;5083559;28;19924;-38
2023/07/24 14:10:51;;;;;;;;;;;23.60;74.70;;;;;;5082168;28;19919;-37